sensor_id;sensor_type;location;lat;lon;timestamp;temperature;humidity
4295;DHT22;2161;53.634;10.100;2023-04-24T00:00:01;14.10;99.90
4295;DHT22;2161;53.634;10.100;2023-04-24T00:02:28;14.10;99.90
4295;DHT22;2161;53.634;10.100;2023-04-24T00:04:53;14.10;99.90
4295;DHT22;2161;53.634;10.100;2023-04-24T00:07:19;13.90;99.90
4295;DHT22;2161;53.634;10.100;2023-04-24T00:09:45;13.80;99.90
4295;DHT22;2161;53.634;10.100;2023-04-24T00:12:11;13.80;99.90
4295;DHT22;2161;53.634;10.100;2023-04-24T00:14:36;13.80;99.90
4295;DHT22;2161;53.634;10.100;2023-04-24T00:17:02;13.60;99.90
4295;DHT22;2161;53.634;10.100;2023-04-24T00:19:28;13.70;99.90
4295;DHT22;2161;53.634;10.100;2023-04-24T00:21:54;13.80;99.90
4295;DHT22;2161;53.634;10.100;2023-04-24T00:24:20;13.90;99.90
4295;DHT22;2161;53.634;10.100;2023-04-24T00:26:46;13.90;99.90
4295;DHT22;2161;53.634;10.100;2023-04-24T00:29:11;14.10;99.90
4295;DHT22;2161;53.634;10.100;2023-04-24T00:31:37;14.10;99.90
4295;DHT22;2161;53.634;10.100;2023-04-24T00:34:03;14.10;99.90
4295;DHT22;2161;53.634;10.100;2023-04-24T00:36:28;14.10;99.90
4295;DHT22;2161;53.634;10.100;2023-04-24T00:38:56;14.20;99.90
4295;DHT22;2161;53.634;10.100;2023-04-24T00:41:21;14.20;99.90
4295;DHT22;2161;53.634;10.100;2023-04-24T00:43:47;14.10;99.90
4295;DHT22;2161;53.634;10.100;2023-04-24T00:46:14;14.10;99.90
4295;DHT22;2161;53.634;10.100;2023-04-24T00:48:40;14.10;99.90
4295;DHT22;2161;53.634;10.100;2023-04-24T00:51:06;14.20;99.90
4295;DHT22;2161;53.634;10.100;2023-04-24T00:53:31;14.20;99.90
4295;DHT22;2161;53.634;10.100;2023-04-24T00:55:58;14.20;99.90
4295;DHT22;2161;53.634;10.100;2023-04-24T00:58:24;14.00;99.90
4295;DHT22;2161;53.634;10.100;2023-04-24T01:00:50;14.00;99.90
4295;DHT22;2161;53.634;10.100;2023-04-24T01:03:21;14.10;99.90
4295;DHT22;2161;53.634;10.100;2023-04-24T01:05:49;14.10;99.90
4295;DHT22;2161;53.634;10.100;2023-04-24T01:08:15;14.10;99.90
4295;DHT22;2161;53.634;10.100;2023-04-24T01:10:41;14.10;99.90
4295;DHT22;2161;53.634;10.100;2023-04-24T01:13:08;13.90;99.90
4295;DHT22;2161;53.634;10.100;2023-04-24T01:15:34;14.00;99.90
4295;DHT22;2161;53.634;10.100;2023-04-24T01:17:59;14.00;99.90
4295;DHT22;2161;53.634;10.100;2023-04-24T01:20:25;14.00;99.90
4295;DHT22;2161;53.634;10.100;2023-04-24T01:22:51;14.10;99.90
4295;DHT22;2161;53.634;10.100;2023-04-24T01:25:18;14.10;99.90
4295;DHT22;2161;53.634;10.100;2023-04-24T01:27:43;14.00;99.90
4295;DHT22;2161;53.634;10.100;2023-04-24T01:30:09;14.00;99.90
4295;DHT22;2161;53.634;10.100;2023-04-24T01:32:36;13.80;99.90
4295;DHT22;2161;53.634;10.100;2023-04-24T01:35:02;13.90;99.90
4295;DHT22;2161;53.634;10.100;2023-04-24T01:37:28;14.00;99.90
4295;DHT22;2161;53.634;10.100;2023-04-24T01:39:53;13.80;99.90
4295;DHT22;2161;53.634;10.100;2023-04-24T01:42:19;13.70;99.90
4295;DHT22;2161;53.634;10.100;2023-04-24T01:44:44;13.60;99.90
4295;DHT22;2161;53.634;10.100;2023-04-24T01:47:10;13.70;99.90
4295;DHT22;2161;53.634;10.100;2023-04-24T01:49:38;13.80;99.90
4295;DHT22;2161;53.634;10.100;2023-04-24T01:52:04;13.80;99.90
4295;DHT22;2161;53.634;10.100;2023-04-24T01:54:30;13.80;99.90
4295;DHT22;2161;53.634;10.100;2023-04-24T01:56:55;13.80;99.90
4295;DHT22;2161;53.634;10.100;2023-04-24T01:59:21;13.90;99.90
4295;DHT22;2161;53.634;10.100;2023-04-24T02:01:48;13.80;99.90
4295;DHT22;2161;53.634;10.100;2023-04-24T02:04:14;13.70;99.90
4295;DHT22;2161;53.634;10.100;2023-04-24T02:06:40;13.50;99.90
4295;DHT22;2161;53.634;10.100;2023-04-24T02:09:06;13.40;99.90
4295;DHT22;2161;53.634;10.100;2023-04-24T02:11:32;13.60;99.90
4295;DHT22;2161;53.634;10.100;2023-04-24T02:13:58;13.50;99.90
4295;DHT22;2161;53.634;10.100;2023-04-24T02:16:23;13.50;99.90
4295;DHT22;2161;53.634;10.100;2023-04-24T02:18:49;13.40;99.90
4295;DHT22;2161;53.634;10.100;2023-04-24T02:21:14;13.40;99.90
4295;DHT22;2161;53.634;10.100;2023-04-24T02:23:40;13.20;99.90
4295;DHT22;2161;53.634;10.100;2023-04-24T02:26:06;13.30;99.90
4295;DHT22;2161;53.634;10.100;2023-04-24T02:28:31;13.40;99.90
4295;DHT22;2161;53.634;10.100;2023-04-24T02:30:57;13.60;99.90
4295;DHT22;2161;53.634;10.100;2023-04-24T02:33:22;13.60;99.90
4295;DHT22;2161;53.634;10.100;2023-04-24T02:35:48;13.50;99.90
4295;DHT22;2161;53.634;10.100;2023-04-24T02:38:13;13.50;99.90
4295;DHT22;2161;53.634;10.100;2023-04-24T02:40:39;13.50;99.90
4295;DHT22;2161;53.634;10.100;2023-04-24T02:43:04;13.50;99.90
4295;DHT22;2161;53.634;10.100;2023-04-24T02:45:30;13.50;99.90
4295;DHT22;2161;53.634;10.100;2023-04-24T02:47:55;13.30;99.90
4295;DHT22;2161;53.634;10.100;2023-04-24T02:50:21;13.40;99.90
4295;DHT22;2161;53.634;10.100;2023-04-24T02:52:46;13.40;99.90
4295;DHT22;2161;53.634;10.100;2023-04-24T02:55:12;13.40;99.90
4295;DHT22;2161;53.634;10.100;2023-04-24T02:57:37;13.40;99.90
4295;DHT22;2161;53.634;10.100;2023-04-24T03:00:03;13.40;99.90
4295;DHT22;2161;53.634;10.100;2023-04-24T03:02:32;13.10;99.90
4295;DHT22;2161;53.634;10.100;2023-04-24T03:04:57;13.20;99.90
4295;DHT22;2161;53.634;10.100;2023-04-24T03:07:23;13.10;99.90
4295;DHT22;2161;53.634;10.100;2023-04-24T03:09:49;13.30;99.90
4295;DHT22;2161;53.634;10.100;2023-04-24T03:12:14;13.20;99.90
4295;DHT22;2161;53.634;10.100;2023-04-24T03:14:42;13.10;99.90
4295;DHT22;2161;53.634;10.100;2023-04-24T03:17:07;13.00;99.90
4295;DHT22;2161;53.634;10.100;2023-04-24T03:19:33;12.90;99.90
4295;DHT22;2161;53.634;10.100;2023-04-24T03:21:58;13.00;99.90
4295;DHT22;2161;53.634;10.100;2023-04-24T03:24:24;13.10;99.90
4295;DHT22;2161;53.634;10.100;2023-04-24T03:26:49;13.10;99.90
4295;DHT22;2161;53.634;10.100;2023-04-24T03:29:15;13.00;99.90
4295;DHT22;2161;53.634;10.100;2023-04-24T03:31:40;13.00;99.90
4295;DHT22;2161;53.634;10.100;2023-04-24T03:34:06;12.90;99.90
4295;DHT22;2161;53.634;10.100;2023-04-24T03:36:32;12.70;99.90
4295;DHT22;2161;53.634;10.100;2023-04-24T03:38:57;12.90;99.90
4295;DHT22;2161;53.634;10.100;2023-04-24T03:41:23;12.70;99.90
4295;DHT22;2161;53.634;10.100;2023-04-24T03:43:48;12.90;99.90
4295;DHT22;2161;53.634;10.100;2023-04-24T03:46:14;12.70;99.90
4295;DHT22;2161;53.634;10.100;2023-04-24T03:48:40;12.70;99.90
4295;DHT22;2161;53.634;10.100;2023-04-24T03:51:05;12.60;99.90
4295;DHT22;2161;53.634;10.100;2023-04-24T03:53:31;12.50;99.90
4295;DHT22;2161;53.634;10.100;2023-04-24T03:55:56;12.70;99.90
4295;DHT22;2161;53.634;10.100;2023-04-24T03:58:22;12.50;99.90
4295;DHT22;2161;53.634;10.100;2023-04-24T04:00:47;12.50;99.90
4295;DHT22;2161;53.634;10.100;2023-04-24T04:03:13;12.40;99.90
4295;DHT22;2161;53.634;10.100;2023-04-24T04:05:40;12.50;99.90
4295;DHT22;2161;53.634;10.100;2023-04-24T04:08:05;12.60;99.90
4295;DHT22;2161;53.634;10.100;2023-04-24T04:10:31;12.70;99.90
4295;DHT22;2161;53.634;10.100;2023-04-24T04:12:56;12.60;99.90
4295;DHT22;2161;53.634;10.100;2023-04-24T04:15:22;12.60;99.90
4295;DHT22;2161;53.634;10.100;2023-04-24T04:17:47;12.70;99.90
4295;DHT22;2161;53.634;10.100;2023-04-24T04:20:13;12.70;99.90
4295;DHT22;2161;53.634;10.100;2023-04-24T04:22:39;12.50;99.90
4295;DHT22;2161;53.634;10.100;2023-04-24T04:25:05;12.30;99.90
4295;DHT22;2161;53.634;10.100;2023-04-24T04:27:31;12.20;99.90
4295;DHT22;2161;53.634;10.100;2023-04-24T04:29:58;12.30;99.90
4295;DHT22;2161;53.634;10.100;2023-04-24T04:32:26;12.50;99.90
4295;DHT22;2161;53.634;10.100;2023-04-24T04:34:52;12.60;99.90
4295;DHT22;2161;53.634;10.100;2023-04-24T04:37:18;12.60;99.90
4295;DHT22;2161;53.634;10.100;2023-04-24T04:39:44;12.60;99.90
4295;DHT22;2161;53.634;10.100;2023-04-24T04:42:09;12.70;99.90
4295;DHT22;2161;53.634;10.100;2023-04-24T04:44:35;12.60;99.90
4295;DHT22;2161;53.634;10.100;2023-04-24T04:47:01;12.50;99.90
4295;DHT22;2161;53.634;10.100;2023-04-24T04:49:31;12.40;99.90
4295;DHT22;2161;53.634;10.100;2023-04-24T04:51:56;12.30;99.90
4295;DHT22;2161;53.634;10.100;2023-04-24T04:54:22;12.40;99.90
4295;DHT22;2161;53.634;10.100;2023-04-24T04:56:50;12.50;99.90
4295;DHT22;2161;53.634;10.100;2023-04-24T04:59:15;12.40;99.90
4295;DHT22;2161;53.634;10.100;2023-04-24T05:01:41;12.40;99.90
4295;DHT22;2161;53.634;10.100;2023-04-24T05:04:07;12.50;99.90
4295;DHT22;2161;53.634;10.100;2023-04-24T05:06:32;12.50;99.90
4295;DHT22;2161;53.634;10.100;2023-04-24T05:08:58;12.50;99.90
4295;DHT22;2161;53.634;10.100;2023-04-24T05:11:23;12.50;99.90
4295;DHT22;2161;53.634;10.100;2023-04-24T05:13:49;12.70;99.90
4295;DHT22;2161;53.634;10.100;2023-04-24T05:16:14;12.80;99.90
4295;DHT22;2161;53.634;10.100;2023-04-24T05:18:40;12.90;99.90
4295;DHT22;2161;53.634;10.100;2023-04-24T05:21:06;12.70;99.90
4295;DHT22;2161;53.634;10.100;2023-04-24T05:23:31;12.70;99.90
4295;DHT22;2161;53.634;10.100;2023-04-24T05:25:57;12.70;99.90
4295;DHT22;2161;53.634;10.100;2023-04-24T05:28:22;12.70;99.90
4295;DHT22;2161;53.634;10.100;2023-04-24T05:30:48;12.70;99.90
4295;DHT22;2161;53.634;10.100;2023-04-24T05:33:13;12.70;99.90
4295;DHT22;2161;53.634;10.100;2023-04-24T05:35:40;12.80;99.90
4295;DHT22;2161;53.634;10.100;2023-04-24T05:38:11;12.60;99.90
4295;DHT22;2161;53.634;10.100;2023-04-24T05:40:36;12.70;99.90
4295;DHT22;2161;53.634;10.100;2023-04-24T05:43:02;12.70;99.90
4295;DHT22;2161;53.634;10.100;2023-04-24T05:45:27;12.80;99.90
4295;DHT22;2161;53.634;10.100;2023-04-24T05:47:53;12.80;99.90
4295;DHT22;2161;53.634;10.100;2023-04-24T05:50:19;12.80;99.90
4295;DHT22;2161;53.634;10.100;2023-04-24T05:52:45;13.00;99.90
4295;DHT22;2161;53.634;10.100;2023-04-24T05:55:10;13.00;99.90
4295;DHT22;2161;53.634;10.100;2023-04-24T05:57:36;13.00;99.90
4295;DHT22;2161;53.634;10.100;2023-04-24T06:00:02;13.00;99.90
4295;DHT22;2161;53.634;10.100;2023-04-24T06:02:29;12.90;99.90
4295;DHT22;2161;53.634;10.100;2023-04-24T06:04:58;12.80;99.90
4295;DHT22;2161;53.634;10.100;2023-04-24T06:07:25;12.90;99.90
4295;DHT22;2161;53.634;10.100;2023-04-24T06:09:52;12.80;99.90
4295;DHT22;2161;53.634;10.100;2023-04-24T06:12:17;13.00;99.90
4295;DHT22;2161;53.634;10.100;2023-04-24T06:14:43;12.90;99.90
4295;DHT22;2161;53.634;10.100;2023-04-24T06:17:09;12.90;99.90
4295;DHT22;2161;53.634;10.100;2023-04-24T06:19:34;12.80;99.90
4295;DHT22;2161;53.634;10.100;2023-04-24T06:22:00;12.80;99.90
4295;DHT22;2161;53.634;10.100;2023-04-24T06:24:28;12.90;99.90
4295;DHT22;2161;53.634;10.100;2023-04-24T06:26:54;12.70;99.90
4295;DHT22;2161;53.634;10.100;2023-04-24T06:29:20;12.90;99.90
4295;DHT22;2161;53.634;10.100;2023-04-24T06:31:45;12.90;99.90
4295;DHT22;2161;53.634;10.100;2023-04-24T06:34:11;13.10;99.90
4295;DHT22;2161;53.634;10.100;2023-04-24T06:36:36;13.10;99.90
4295;DHT22;2161;53.634;10.100;2023-04-24T06:39:02;13.20;99.90
4295;DHT22;2161;53.634;10.100;2023-04-24T06:41:28;13.20;99.90
4295;DHT22;2161;53.634;10.100;2023-04-24T06:43:54;13.20;99.90
4295;DHT22;2161;53.634;10.100;2023-04-24T06:46:20;13.20;99.90
4295;DHT22;2161;53.634;10.100;2023-04-24T06:48:49;13.40;99.90
4295;DHT22;2161;53.634;10.100;2023-04-24T06:51:14;13.30;99.90
4295;DHT22;2161;53.634;10.100;2023-04-24T06:53:40;13.40;99.90
4295;DHT22;2161;53.634;10.100;2023-04-24T06:56:06;13.50;99.90
4295;DHT22;2161;53.634;10.100;2023-04-24T06:58:31;13.60;99.90
4295;DHT22;2161;53.634;10.100;2023-04-24T07:00:57;13.50;99.90
4295;DHT22;2161;53.634;10.100;2023-04-24T07:03:22;13.70;99.90
4295;DHT22;2161;53.634;10.100;2023-04-24T07:05:48;13.90;99.90
4295;DHT22;2161;53.634;10.100;2023-04-24T07:08:14;13.80;99.90
4295;DHT22;2161;53.634;10.100;2023-04-24T07:10:42;13.70;99.90
4295;DHT22;2161;53.634;10.100;2023-04-24T07:13:08;13.80;99.90
4295;DHT22;2161;53.634;10.100;2023-04-24T07:15:33;13.70;99.90
4295;DHT22;2161;53.634;10.100;2023-04-24T07:17:59;13.60;99.90
4295;DHT22;2161;53.634;10.100;2023-04-24T07:20:25;13.60;99.90
4295;DHT22;2161;53.634;10.100;2023-04-24T07:22:51;13.40;99.90
4295;DHT22;2161;53.634;10.100;2023-04-24T07:25:19;13.40;99.90
4295;DHT22;2161;53.634;10.100;2023-04-24T07:27:44;13.50;99.90
4295;DHT22;2161;53.634;10.100;2023-04-24T07:30:10;13.60;99.90
4295;DHT22;2161;53.634;10.100;2023-04-24T07:32:36;13.60;99.90
4295;DHT22;2161;53.634;10.100;2023-04-24T07:35:02;13.70;99.90
4295;DHT22;2161;53.634;10.100;2023-04-24T07:37:28;13.60;99.90
4295;DHT22;2161;53.634;10.100;2023-04-24T07:39:54;13.80;99.90
4295;DHT22;2161;53.634;10.100;2023-04-24T07:42:20;13.80;99.90
4295;DHT22;2161;53.634;10.100;2023-04-24T07:44:45;13.70;99.90
4295;DHT22;2161;53.634;10.100;2023-04-24T07:47:13;13.60;99.90
4295;DHT22;2161;53.634;10.100;2023-04-24T07:49:41;13.50;99.90
4295;DHT22;2161;53.634;10.100;2023-04-24T07:52:07;13.50;99.90
4295;DHT22;2161;53.634;10.100;2023-04-24T07:54:33;13.50;99.90
4295;DHT22;2161;53.634;10.100;2023-04-24T07:56:58;13.70;99.90
4295;DHT22;2161;53.634;10.100;2023-04-24T07:59:24;13.60;99.90
4295;DHT22;2161;53.634;10.100;2023-04-24T08:01:49;13.80;99.90
4295;DHT22;2161;53.634;10.100;2023-04-24T08:04:15;13.90;99.90
4295;DHT22;2161;53.634;10.100;2023-04-24T08:06:40;13.90;99.90
4295;DHT22;2161;53.634;10.100;2023-04-24T08:09:06;14.00;99.90
4295;DHT22;2161;53.634;10.100;2023-04-24T08:11:31;13.90;99.90
4295;DHT22;2161;53.634;10.100;2023-04-24T08:13:58;13.60;99.90
4295;DHT22;2161;53.634;10.100;2023-04-24T08:16:23;13.70;99.90
4295;DHT22;2161;53.634;10.100;2023-04-24T08:18:49;13.70;99.90
4295;DHT22;2161;53.634;10.100;2023-04-24T08:21:15;13.60;99.90
4295;DHT22;2161;53.634;10.100;2023-04-24T08:23:44;13.90;99.90
4295;DHT22;2161;53.634;10.100;2023-04-24T08:26:10;13.90;99.90
4295;DHT22;2161;53.634;10.100;2023-04-24T08:28:36;14.00;99.90
4295;DHT22;2161;53.634;10.100;2023-04-24T08:31:02;14.10;99.90
4295;DHT22;2161;53.634;10.100;2023-04-24T08:33:28;13.90;99.90
4295;DHT22;2161;53.634;10.100;2023-04-24T08:36:02;13.90;99.90
4295;DHT22;2161;53.634;10.100;2023-04-24T08:38:28;13.90;99.90
4295;DHT22;2161;53.634;10.100;2023-04-24T08:40:54;14.00;99.90
4295;DHT22;2161;53.634;10.100;2023-04-24T08:43:22;14.00;99.90
4295;DHT22;2161;53.634;10.100;2023-04-24T08:45:47;13.90;99.90
4295;DHT22;2161;53.634;10.100;2023-04-24T08:48:13;13.90;99.90
4295;DHT22;2161;53.634;10.100;2023-04-24T08:50:40;13.90;99.90
4295;DHT22;2161;53.634;10.100;2023-04-24T08:53:08;14.00;99.90
4295;DHT22;2161;53.634;10.100;2023-04-24T08:55:34;13.80;99.90
4295;DHT22;2161;53.634;10.100;2023-04-24T08:58:01;13.70;99.90
4295;DHT22;2161;53.634;10.100;2023-04-24T09:00:28;13.70;99.90
4295;DHT22;2161;53.634;10.100;2023-04-24T09:02:55;13.60;99.90
4295;DHT22;2161;53.634;10.100;2023-04-24T09:05:21;13.80;99.90
4295;DHT22;2161;53.634;10.100;2023-04-24T09:07:56;13.90;99.90
4295;DHT22;2161;53.634;10.100;2023-04-24T09:10:23;13.90;99.90
4295;DHT22;2161;53.634;10.100;2023-04-24T09:12:50;13.80;99.90
4295;DHT22;2161;53.634;10.100;2023-04-24T09:15:16;13.70;99.90
4295;DHT22;2161;53.634;10.100;2023-04-24T09:17:43;13.90;99.90
4295;DHT22;2161;53.634;10.100;2023-04-24T09:20:08;13.90;99.90
4295;DHT22;2161;53.634;10.100;2023-04-24T09:22:34;13.80;99.90
4295;DHT22;2161;53.634;10.100;2023-04-24T09:25:04;14.00;99.90
4295;DHT22;2161;53.634;10.100;2023-04-24T09:27:31;14.00;99.90
4295;DHT22;2161;53.634;10.100;2023-04-24T09:29:57;14.10;99.90
4295;DHT22;2161;53.634;10.100;2023-04-24T09:32:23;14.10;99.90
4295;DHT22;2161;53.634;10.100;2023-04-24T09:37:41;13.90;99.90
4295;DHT22;2161;53.634;10.100;2023-04-24T09:40:18;13.80;99.90
4295;DHT22;2161;53.634;10.100;2023-04-24T09:42:52;13.80;99.90
4295;DHT22;2161;53.634;10.100;2023-04-24T09:45:18;13.70;99.90
4295;DHT22;2161;53.634;10.100;2023-04-24T09:47:44;13.90;99.90
4295;DHT22;2161;53.634;10.100;2023-04-24T09:50:21;14.10;99.90
4295;DHT22;2161;53.634;10.100;2023-04-24T09:52:58;14.10;99.90
4295;DHT22;2161;53.634;10.100;2023-04-24T09:55:24;14.00;99.90
4295;DHT22;2161;53.634;10.100;2023-04-24T09:57:52;14.10;99.90
4295;DHT22;2161;53.634;10.100;2023-04-24T10:00:32;14.00;99.90
4295;DHT22;2161;53.634;10.100;2023-04-24T10:02:59;13.90;99.90
4295;DHT22;2161;53.634;10.100;2023-04-24T10:05:35;13.70;99.90
4295;DHT22;2161;53.634;10.100;2023-04-24T10:08:03;13.80;99.90
4295;DHT22;2161;53.634;10.100;2023-04-24T10:10:30;13.80;99.90
4295;DHT22;2161;53.634;10.100;2023-04-24T10:12:56;13.80;99.90
4295;DHT22;2161;53.634;10.100;2023-04-24T10:15:22;13.80;99.90
4295;DHT22;2161;53.634;10.100;2023-04-24T10:17:51;13.80;99.90
4295;DHT22;2161;53.634;10.100;2023-04-24T10:20:21;13.60;99.90
4295;DHT22;2161;53.634;10.100;2023-04-24T10:22:52;13.70;99.90
4295;DHT22;2161;53.634;10.100;2023-04-24T10:25:26;13.80;99.90
4295;DHT22;2161;53.634;10.100;2023-04-24T10:27:52;13.90;99.90
4295;DHT22;2161;53.634;10.100;2023-04-24T10:30:19;13.80;99.90
4295;DHT22;2161;53.634;10.100;2023-04-24T10:32:45;13.60;99.90
4295;DHT22;2161;53.634;10.100;2023-04-24T10:35:15;13.70;99.90
4295;DHT22;2161;53.634;10.100;2023-04-24T10:37:44;13.70;99.90
4295;DHT22;2161;53.634;10.100;2023-04-24T10:40:11;13.80;99.90
4295;DHT22;2161;53.634;10.100;2023-04-24T10:42:40;13.70;99.90
4295;DHT22;2161;53.634;10.100;2023-04-24T10:45:16;13.70;99.90
4295;DHT22;2161;53.634;10.100;2023-04-24T10:47:45;13.60;99.90
4295;DHT22;2161;53.634;10.100;2023-04-24T10:50:15;13.70;99.90
4295;DHT22;2161;53.634;10.100;2023-04-24T10:52:48;13.60;99.90
4295;DHT22;2161;53.634;10.100;2023-04-24T10:55:16;13.60;99.90
4295;DHT22;2161;53.634;10.100;2023-04-24T10:58:04;13.70;99.90
4295;DHT22;2161;53.634;10.100;2023-04-24T11:00:30;13.70;99.90
4295;DHT22;2161;53.634;10.100;2023-04-24T11:02:56;13.70;99.90
4295;DHT22;2161;53.634;10.100;2023-04-24T11:05:49;13.60;99.90
4295;DHT22;2161;53.634;10.100;2023-04-24T11:08:15;13.60;99.90
4295;DHT22;2161;53.634;10.100;2023-04-24T11:10:47;13.60;99.90
4295;DHT22;2161;53.634;10.100;2023-04-24T11:13:22;13.50;99.90
4295;DHT22;2161;53.634;10.100;2023-04-24T11:18:39;13.70;99.90
4295;DHT22;2161;53.634;10.100;2023-04-24T11:21:17;13.90;99.90
4295;DHT22;2161;53.634;10.100;2023-04-24T11:23:45;14.30;99.90
4295;DHT22;2161;53.634;10.100;2023-04-24T11:26:18;14.40;99.90
4295;DHT22;2161;53.634;10.100;2023-04-24T11:28:46;14.40;99.90
4295;DHT22;2161;53.634;10.100;2023-04-24T11:31:34;14.20;99.90
4295;DHT22;2161;53.634;10.100;2023-04-24T11:34:12;14.20;99.90
4295;DHT22;2161;53.634;10.100;2023-04-24T11:36:39;14.20;99.90
4295;DHT22;2161;53.634;10.100;2023-04-24T11:39:06;14.40;99.90
4295;DHT22;2161;53.634;10.100;2023-04-24T11:41:32;14.40;99.90
4295;DHT22;2161;53.634;10.100;2023-04-24T11:43:58;14.40;99.90
4295;DHT22;2161;53.634;10.100;2023-04-24T11:46:30;14.40;99.90
4295;DHT22;2161;53.634;10.100;2023-04-24T11:48:57;14.10;99.90
4295;DHT22;2161;53.634;10.100;2023-04-24T11:51:24;13.80;99.90
4295;DHT22;2161;53.634;10.100;2023-04-24T11:53:51;13.90;99.90
4295;DHT22;2161;53.634;10.100;2023-04-24T11:56:18;14.20;99.90
4295;DHT22;2161;53.634;10.100;2023-04-24T11:58:45;14.50;99.90
4295;DHT22;2161;53.634;10.100;2023-04-24T12:01:11;14.70;99.90
4295;DHT22;2161;53.634;10.100;2023-04-24T12:03:37;14.70;99.90
4295;DHT22;2161;53.634;10.100;2023-04-24T12:06:07;14.80;99.90
4295;DHT22;2161;53.634;10.100;2023-04-24T12:08:35;14.50;99.90
4295;DHT22;2161;53.634;10.100;2023-04-24T12:11:02;14.60;99.90
4295;DHT22;2161;53.634;10.100;2023-04-24T12:13:28;14.50;99.90
4295;DHT22;2161;53.634;10.100;2023-04-24T12:15:53;14.30;99.90
4295;DHT22;2161;53.634;10.100;2023-04-24T12:18:22;14.10;99.90
4295;DHT22;2161;53.634;10.100;2023-04-24T12:20:48;14.10;99.90
4295;DHT22;2161;53.634;10.100;2023-04-24T12:23:14;14.10;99.90
4295;DHT22;2161;53.634;10.100;2023-04-24T12:25:39;14.20;99.90
4295;DHT22;2161;53.634;10.100;2023-04-24T12:30:33;14.40;99.90
4295;DHT22;2161;53.634;10.100;2023-04-24T12:33:00;14.30;99.90
4295;DHT22;2161;53.634;10.100;2023-04-24T12:35:29;14.20;99.90
4295;DHT22;2161;53.634;10.100;2023-04-24T12:37:55;14.20;99.90
4295;DHT22;2161;53.634;10.100;2023-04-24T12:40:21;14.20;99.90
4295;DHT22;2161;53.634;10.100;2023-04-24T12:42:51;14.10;99.90
4295;DHT22;2161;53.634;10.100;2023-04-24T12:45:18;14.30;99.90
4295;DHT22;2161;53.634;10.100;2023-04-24T12:47:45;14.00;99.90
4295;DHT22;2161;53.634;10.100;2023-04-24T12:50:12;14.10;99.90
4295;DHT22;2161;53.634;10.100;2023-04-24T12:52:38;14.00;99.90
4295;DHT22;2161;53.634;10.100;2023-04-24T12:55:05;14.20;99.90
4295;DHT22;2161;53.634;10.100;2023-04-24T12:57:33;14.20;99.90
4295;DHT22;2161;53.634;10.100;2023-04-24T13:00:00;14.20;99.90
4295;DHT22;2161;53.634;10.100;2023-04-24T13:02:27;14.10;99.90
4295;DHT22;2161;53.634;10.100;2023-04-24T13:04:54;14.00;99.90
4295;DHT22;2161;53.634;10.100;2023-04-24T13:07:20;13.90;99.90
4295;DHT22;2161;53.634;10.100;2023-04-24T13:09:47;13.90;99.90
4295;DHT22;2161;53.634;10.100;2023-04-24T13:12:13;13.80;99.90
4295;DHT22;2161;53.634;10.100;2023-04-24T13:14:38;13.80;99.90
4295;DHT22;2161;53.634;10.100;2023-04-24T13:17:04;13.70;99.90
4295;DHT22;2161;53.634;10.100;2023-04-24T13:19:35;13.60;99.90
4295;DHT22;2161;53.634;10.100;2023-04-24T13:22:01;13.60;99.90
4295;DHT22;2161;53.634;10.100;2023-04-24T13:24:27;13.30;99.90
4295;DHT22;2161;53.634;10.100;2023-04-24T13:26:53;13.30;99.90
4295;DHT22;2161;53.634;10.100;2023-04-24T13:29:19;13.40;99.90
4295;DHT22;2161;53.634;10.100;2023-04-24T13:31:46;13.20;99.90
4295;DHT22;2161;53.634;10.100;2023-04-24T13:34:12;13.30;99.90
4295;DHT22;2161;53.634;10.100;2023-04-24T13:36:38;13.30;99.90
4295;DHT22;2161;53.634;10.100;2023-04-24T13:39:05;13.00;99.90
4295;DHT22;2161;53.634;10.100;2023-04-24T13:41:30;12.80;99.90
4295;DHT22;2161;53.634;10.100;2023-04-24T13:43:56;12.80;99.90
4295;DHT22;2161;53.634;10.100;2023-04-24T13:46:21;12.80;99.90
4295;DHT22;2161;53.634;10.100;2023-04-24T13:48:47;12.90;99.90
4295;DHT22;2161;53.634;10.100;2023-04-24T13:51:13;12.90;99.90
4295;DHT22;2161;53.634;10.100;2023-04-24T13:53:38;12.70;99.90
4295;DHT22;2161;53.634;10.100;2023-04-24T13:56:04;12.90;99.90
4295;DHT22;2161;53.634;10.100;2023-04-24T13:58:31;13.00;99.90
4295;DHT22;2161;53.634;10.100;2023-04-24T14:00:57;13.10;99.90
4295;DHT22;2161;53.634;10.100;2023-04-24T14:03:23;12.90;99.90
4295;DHT22;2161;53.634;10.100;2023-04-24T14:05:48;12.90;99.90
4295;DHT22;2161;53.634;10.100;2023-04-24T14:08:14;12.90;99.90
4295;DHT22;2161;53.634;10.100;2023-04-24T14:10:40;12.90;99.90
4295;DHT22;2161;53.634;10.100;2023-04-24T14:13:05;12.90;99.90
4295;DHT22;2161;53.634;10.100;2023-04-24T14:15:31;12.90;99.90
4295;DHT22;2161;53.634;10.100;2023-04-24T14:17:57;12.90;99.90
4295;DHT22;2161;53.634;10.100;2023-04-24T14:20:23;12.90;99.90
4295;DHT22;2161;53.634;10.100;2023-04-24T14:22:48;13.00;99.90
4295;DHT22;2161;53.634;10.100;2023-04-24T14:25:14;13.10;99.90
4295;DHT22;2161;53.634;10.100;2023-04-24T14:27:40;13.30;99.90
4295;DHT22;2161;53.634;10.100;2023-04-24T14:30:06;13.40;99.90
4295;DHT22;2161;53.634;10.100;2023-04-24T14:32:32;13.30;99.90
4295;DHT22;2161;53.634;10.100;2023-04-24T14:34:58;13.30;99.90
4295;DHT22;2161;53.634;10.100;2023-04-24T14:37:23;13.20;99.90
4295;DHT22;2161;53.634;10.100;2023-04-24T14:39:49;13.20;99.90
4295;DHT22;2161;53.634;10.100;2023-04-24T14:42:14;13.10;99.90
4295;DHT22;2161;53.634;10.100;2023-04-24T14:44:42;13.10;99.90
4295;DHT22;2161;53.634;10.100;2023-04-24T14:47:07;13.20;99.90
4295;DHT22;2161;53.634;10.100;2023-04-24T14:49:33;13.10;99.90
4295;DHT22;2161;53.634;10.100;2023-04-24T14:51:58;13.10;99.90
4295;DHT22;2161;53.634;10.100;2023-04-24T14:54:24;13.10;99.90
4295;DHT22;2161;53.634;10.100;2023-04-24T14:56:50;12.90;99.90
4295;DHT22;2161;53.634;10.100;2023-04-24T14:59:16;12.80;99.90
4295;DHT22;2161;53.634;10.100;2023-04-24T15:01:42;12.60;99.90
4295;DHT22;2161;53.634;10.100;2023-04-24T15:04:07;12.30;99.90
4295;DHT22;2161;53.634;10.100;2023-04-24T15:06:33;12.00;99.90
4295;DHT22;2161;53.634;10.100;2023-04-24T15:08:58;11.90;99.90
4295;DHT22;2161;53.634;10.100;2023-04-24T15:11:24;11.90;99.90
4295;DHT22;2161;53.634;10.100;2023-04-24T15:13:49;12.10;99.90
4295;DHT22;2161;53.634;10.100;2023-04-24T15:16:15;12.10;99.90
4295;DHT22;2161;53.634;10.100;2023-04-24T15:18:41;12.10;99.90
4295;DHT22;2161;53.634;10.100;2023-04-24T15:21:06;12.00;99.90
4295;DHT22;2161;53.634;10.100;2023-04-24T15:23:32;11.80;99.90
4295;DHT22;2161;53.634;10.100;2023-04-24T15:25:58;11.70;99.90
4295;DHT22;2161;53.634;10.100;2023-04-24T15:28:24;11.80;99.90
4295;DHT22;2161;53.634;10.100;2023-04-24T15:30:50;11.90;99.90
4295;DHT22;2161;53.634;10.100;2023-04-24T15:33:15;11.80;99.90
4295;DHT22;2161;53.634;10.100;2023-04-24T15:35:41;11.80;99.90
4295;DHT22;2161;53.634;10.100;2023-04-24T15:38:06;11.60;99.90
4295;DHT22;2161;53.634;10.100;2023-04-24T15:40:32;11.50;99.90
4295;DHT22;2161;53.634;10.100;2023-04-24T15:42:58;11.50;99.90
4295;DHT22;2161;53.634;10.100;2023-04-24T15:45:24;11.70;99.90
4295;DHT22;2161;53.634;10.100;2023-04-24T15:47:50;11.00;99.90